sensor_id;sensor_type;location;lat;lon;timestamp;temperature;humidity
41435;DHT22;27177;22.262;114.192;2022-11-15T00:01:09;22.30;99.90
41435;DHT22;27177;22.262;114.192;2022-11-15T00:03:36;22.30;99.90
41435;DHT22;27177;22.262;114.192;2022-11-15T00:06:04;22.30;99.90
41435;DHT22;27177;22.262;114.192;2022-11-15T00:08:32;22.30;99.90
41435;DHT22;27177;22.262;114.192;2022-11-15T00:10:59;22.30;99.90
41435;DHT22;27177;22.262;114.192;2022-11-15T00:13:27;22.30;99.90
41435;DHT22;27177;22.262;114.192;2022-11-15T00:15:57;22.30;99.90
41435;DHT22;27177;22.262;114.192;2022-11-15T00:18:28;22.40;99.90
41435;DHT22;27177;22.262;114.192;2022-11-15T00:20:56;22.40;99.90
41435;DHT22;27177;22.262;114.192;2022-11-15T00:23:28;22.40;99.90
41435;DHT22;27177;22.262;114.192;2022-11-15T00:25:58;22.50;99.90
41435;DHT22;27177;22.262;114.192;2022-11-15T00:28:25;22.50;99.90
41435;DHT22;27177;22.262;114.192;2022-11-15T00:30:52;22.50;99.90
41435;DHT22;27177;22.262;114.192;2022-11-15T00:33:19;22.60;99.90
41435;DHT22;27177;22.262;114.192;2022-11-15T00:38:21;22.70;99.90
41435;DHT22;27177;22.262;114.192;2022-11-15T00:43:23;22.80;99.90
41435;DHT22;27177;22.262;114.192;2022-11-15T00:48:25;22.90;99.90
41435;DHT22;27177;22.262;114.192;2022-11-15T00:50:52;23.00;99.90
41435;DHT22;27177;22.262;114.192;2022-11-15T00:53:19;23.00;99.90
41435;DHT22;27177;22.262;114.192;2022-11-15T00:55:46;23.00;99.90
41435;DHT22;27177;22.262;114.192;2022-11-15T00:58:13;23.10;99.90
41435;DHT22;27177;22.262;114.192;2022-11-15T01:00:40;23.10;99.90
41435;DHT22;27177;22.262;114.192;2022-11-15T01:03:06;23.10;99.90
41435;DHT22;27177;22.262;114.192;2022-11-15T01:05:33;23.20;99.90
41435;DHT22;27177;22.262;114.192;2022-11-15T01:08:00;23.30;99.90
41435;DHT22;27177;22.262;114.192;2022-11-15T01:10:26;23.30;99.90
41435;DHT22;27177;22.262;114.192;2022-11-15T01:12:53;23.40;99.90
41435;DHT22;27177;22.262;114.192;2022-11-15T01:15:20;23.40;99.90
41435;DHT22;27177;22.262;114.192;2022-11-15T01:17:47;23.40;99.90
41435;DHT22;27177;22.262;114.192;2022-11-15T01:20:13;23.50;99.90
41435;DHT22;27177;22.262;114.192;2022-11-15T01:22:40;23.50;99.90
41435;DHT22;27177;22.262;114.192;2022-11-15T01:25:07;23.50;99.90
41435;DHT22;27177;22.262;114.192;2022-11-15T01:27:33;23.60;99.90
41435;DHT22;27177;22.262;114.192;2022-11-15T01:32:35;23.60;99.90
41435;DHT22;27177;22.262;114.192;2022-11-15T01:35:02;23.50;99.90
41435;DHT22;27177;22.262;114.192;2022-11-15T01:37:28;23.40;99.90
41435;DHT22;27177;22.262;114.192;2022-11-15T01:39:55;23.40;99.90
41435;DHT22;27177;22.262;114.192;2022-11-15T01:42:22;23.30;99.90
41435;DHT22;27177;22.262;114.192;2022-11-15T01:44:52;23.30;99.90
41435;DHT22;27177;22.262;114.192;2022-11-15T01:47:22;23.30;99.90
41435;DHT22;27177;22.262;114.192;2022-11-15T01:52:23;23.10;99.90
41435;DHT22;27177;22.262;114.192;2022-11-15T01:54:55;23.10;99.90
41435;DHT22;27177;22.262;114.192;2022-11-15T01:57:22;23.10;99.90
41435;DHT22;27177;22.262;114.192;2022-11-15T01:59:49;23.10;99.90
41435;DHT22;27177;22.262;114.192;2022-11-15T02:02:16;23.10;99.90
41435;DHT22;27177;22.262;114.192;2022-11-15T02:04:46;23.10;99.90
41435;DHT22;27177;22.262;114.192;2022-11-15T02:07:17;23.10;99.90
41435;DHT22;27177;22.262;114.192;2022-11-15T02:09:44;23.10;99.90
41435;DHT22;27177;22.262;114.192;2022-11-15T02:12:14;23.10;99.90
41435;DHT22;27177;22.262;114.192;2022-11-15T02:14:46;23.20;99.90
41435;DHT22;27177;22.262;114.192;2022-11-15T02:17:36;23.20;99.90
41435;DHT22;27177;22.262;114.192;2022-11-15T02:20:28;23.30;99.90
41435;DHT22;27177;22.262;114.192;2022-11-15T02:43:00;23.70;99.90
41435;DHT22;27177;22.262;114.192;2022-11-15T02:45:27;23.80;99.90
41435;DHT22;27177;22.262;114.192;2022-11-15T02:47:57;23.70;99.90
41435;DHT22;27177;22.262;114.192;2022-11-15T02:50:28;23.60;99.90
41435;DHT22;27177;22.262;114.192;2022-11-15T02:52:56;23.50;99.90
41435;DHT22;27177;22.262;114.192;2022-11-15T02:55:52;23.50;99.90
41435;DHT22;27177;22.262;114.192;2022-11-15T03:02:16;23.60;99.90
41435;DHT22;27177;22.262;114.192;2022-11-15T03:07:01;23.90;99.90
41435;DHT22;27177;22.262;114.192;2022-11-15T03:16:12;24.00;99.90
41435;DHT22;27177;22.262;114.192;2022-11-15T03:18:45;23.90;99.90
41435;DHT22;27177;22.262;114.192;2022-11-15T03:21:15;23.80;99.90
41435;DHT22;27177;22.262;114.192;2022-11-15T03:23:44;23.70;99.90
41435;DHT22;27177;22.262;114.192;2022-11-15T03:32:17;23.90;99.90
41435;DHT22;27177;22.262;114.192;2022-11-15T03:35:14;23.90;99.90
41435;DHT22;27177;22.262;114.192;2022-11-15T03:38:25;24.00;99.90
41435;DHT22;27177;22.262;114.192;2022-11-15T03:40:59;24.00;99.90
41435;DHT22;27177;22.262;114.192;2022-11-15T03:46:20;24.20;99.90
41435;DHT22;27177;22.262;114.192;2022-11-15T03:48:53;24.30;99.90
41435;DHT22;27177;22.262;114.192;2022-11-15T03:51:21;24.30;99.90
41435;DHT22;27177;22.262;114.192;2022-11-15T03:53:48;24.40;99.90
41435;DHT22;27177;22.262;114.192;2022-11-15T03:56:14;24.50;99.90
41435;DHT22;27177;22.262;114.192;2022-11-15T03:58:41;24.60;99.90
41435;DHT22;27177;22.262;114.192;2022-11-15T04:01:08;24.60;99.90
41435;DHT22;27177;22.262;114.192;2022-11-15T04:03:34;24.60;99.90
41435;DHT22;27177;22.262;114.192;2022-11-15T04:06:01;24.60;99.90
41435;DHT22;27177;22.262;114.192;2022-11-15T04:08:28;24.70;99.90
41435;DHT22;27177;22.262;114.192;2022-11-15T04:10:54;24.70;99.90
41435;DHT22;27177;22.262;114.192;2022-11-15T04:13:21;24.70;99.90
41435;DHT22;27177;22.262;114.192;2022-11-15T04:15:48;24.70;99.90
41435;DHT22;27177;22.262;114.192;2022-11-15T04:18:14;24.70;99.90
41435;DHT22;27177;22.262;114.192;2022-11-15T04:20:41;24.60;99.90
41435;DHT22;27177;22.262;114.192;2022-11-15T04:23:26;24.60;99.90
41435;DHT22;27177;22.262;114.192;2022-11-15T04:26:19;24.70;99.90
41435;DHT22;27177;22.262;114.192;2022-11-15T04:28:47;24.60;99.90
41435;DHT22;27177;22.262;114.192;2022-11-15T04:31:32;24.70;99.90
41435;DHT22;27177;22.262;114.192;2022-11-15T04:33:59;24.50;99.90
41435;DHT22;27177;22.262;114.192;2022-11-15T04:36:26;24.50;99.90
41435;DHT22;27177;22.262;114.192;2022-11-15T04:39:11;24.50;99.90
41435;DHT22;27177;22.262;114.192;2022-11-15T04:41:37;24.50;99.90
41435;DHT22;27177;22.262;114.192;2022-11-15T04:44:07;24.60;99.90
41435;DHT22;27177;22.262;114.192;2022-11-15T04:46:37;24.80;99.90
41435;DHT22;27177;22.262;114.192;2022-11-15T04:49:04;24.80;99.90
41435;DHT22;27177;22.262;114.192;2022-11-15T04:51:31;24.80;99.90
41435;DHT22;27177;22.262;114.192;2022-11-15T04:53:57;25.00;99.90
41435;DHT22;27177;22.262;114.192;2022-11-15T04:56:24;25.00;99.90
41435;DHT22;27177;22.262;114.192;2022-11-15T04:58:51;25.00;99.90
41435;DHT22;27177;22.262;114.192;2022-11-15T05:01:17;25.10;99.90
41435;DHT22;27177;22.262;114.192;2022-11-15T05:03:44;24.90;99.90
41435;DHT22;27177;22.262;114.192;2022-11-15T05:06:30;24.80;99.90
41435;DHT22;27177;22.262;114.192;2022-11-15T05:08:57;24.80;99.90
41435;DHT22;27177;22.262;114.192;2022-11-15T05:11:24;24.90;99.90
41435;DHT22;27177;22.262;114.192;2022-11-15T05:13:53;25.00;99.90
41435;DHT22;27177;22.262;114.192;2022-11-15T05:16:19;25.00;99.90
41435;DHT22;27177;22.262;114.192;2022-11-15T05:18:46;25.00;99.90
41435;DHT22;27177;22.262;114.192;2022-11-15T05:21:14;25.10;99.90
41435;DHT22;27177;22.262;114.192;2022-11-15T05:27:28;25.20;99.90
41435;DHT22;27177;22.262;114.192;2022-11-15T05:30:15;25.10;99.90
41435;DHT22;27177;22.262;114.192;2022-11-15T05:32:43;25.00;99.90
41435;DHT22;27177;22.262;114.192;2022-11-15T05:35:24;25.00;99.90
41435;DHT22;27177;22.262;114.192;2022-11-15T05:37:53;25.10;99.90
41435;DHT22;27177;22.262;114.192;2022-11-15T05:40:20;25.10;99.90
41435;DHT22;27177;22.262;114.192;2022-11-15T05:42:47;25.10;99.90
41435;DHT22;27177;22.262;114.192;2022-11-15T05:45:14;25.10;99.90
41435;DHT22;27177;22.262;114.192;2022-11-15T05:47:41;25.10;99.90
41435;DHT22;27177;22.262;114.192;2022-11-15T05:50:12;25.10;99.90
41435;DHT22;27177;22.262;114.192;2022-11-15T05:52:40;25.10;99.90
41435;DHT22;27177;22.262;114.192;2022-11-15T05:55:09;25.00;99.90
41435;DHT22;27177;22.262;114.192;2022-11-15T05:57:36;25.00;99.90
41435;DHT22;27177;22.262;114.192;2022-11-15T06:00:04;24.80;99.90
41435;DHT22;27177;22.262;114.192;2022-11-15T06:02:30;24.80;99.90
41435;DHT22;27177;22.262;114.192;2022-11-15T06:04:57;24.70;99.90
41435;DHT22;27177;22.262;114.192;2022-11-15T06:07:24;24.60;99.90
41435;DHT22;27177;22.262;114.192;2022-11-15T06:09:51;24.70;99.90
41435;DHT22;27177;22.262;114.192;2022-11-15T06:12:17;24.60;99.90
41435;DHT22;27177;22.262;114.192;2022-11-15T06:14:45;24.50;99.90
41435;DHT22;27177;22.262;114.192;2022-11-15T06:17:12;24.30;99.90
41435;DHT22;27177;22.262;114.192;2022-11-15T06:19:39;24.20;99.90
41435;DHT22;27177;22.262;114.192;2022-11-15T06:22:06;24.10;99.90
41435;DHT22;27177;22.262;114.192;2022-11-15T06:24:33;24.20;99.90
41435;DHT22;27177;22.262;114.192;2022-11-15T06:26:59;24.10;99.90
41435;DHT22;27177;22.262;114.192;2022-11-15T06:29:26;24.10;99.90
41435;DHT22;27177;22.262;114.192;2022-11-15T06:31:53;24.00;99.90
41435;DHT22;27177;22.262;114.192;2022-11-15T06:34:19;23.90;99.90
41435;DHT22;27177;22.262;114.192;2022-11-15T06:36:46;23.90;99.90
41435;DHT22;27177;22.262;114.192;2022-11-15T06:39:13;23.90;99.90
41435;DHT22;27177;22.262;114.192;2022-11-15T06:41:39;23.80;99.90
41435;DHT22;27177;22.262;114.192;2022-11-15T06:44:06;23.70;99.90
41435;DHT22;27177;22.262;114.192;2022-11-15T06:46:33;23.70;99.90
41435;DHT22;27177;22.262;114.192;2022-11-15T06:49:00;23.80;99.90
41435;DHT22;27177;22.262;114.192;2022-11-15T06:51:26;23.70;99.90
41435;DHT22;27177;22.262;114.192;2022-11-15T06:53:53;23.80;99.90
41435;DHT22;27177;22.262;114.192;2022-11-15T06:56:20;23.60;99.90
41435;DHT22;27177;22.262;114.192;2022-11-15T06:58:47;23.60;99.90
41435;DHT22;27177;22.262;114.192;2022-11-15T07:01:13;23.60;99.90
41435;DHT22;27177;22.262;114.192;2022-11-15T07:03:41;23.50;99.90
41435;DHT22;27177;22.262;114.192;2022-11-15T07:06:09;23.60;99.90
41435;DHT22;27177;22.262;114.192;2022-11-15T07:08:36;23.70;99.90
41435;DHT22;27177;22.262;114.192;2022-11-15T07:11:05;23.60;99.90
41435;DHT22;27177;22.262;114.192;2022-11-15T07:13:33;23.60;99.90
41435;DHT22;27177;22.262;114.192;2022-11-15T07:16:16;23.60;99.90
41435;DHT22;27177;22.262;114.192;2022-11-15T07:18:42;23.60;99.90
41435;DHT22;27177;22.262;114.192;2022-11-15T07:21:10;23.60;99.90
41435;DHT22;27177;22.262;114.192;2022-11-15T07:23:39;23.60;99.90
41435;DHT22;27177;22.262;114.192;2022-11-15T07:26:07;23.50;99.90
41435;DHT22;27177;22.262;114.192;2022-11-15T07:28:34;23.60;99.90
41435;DHT22;27177;22.262;114.192;2022-11-15T07:31:06;23.50;99.90
41435;DHT22;27177;22.262;114.192;2022-11-15T07:33:33;23.60;99.90
41435;DHT22;27177;22.262;114.192;2022-11-15T07:36:04;23.60;99.90
41435;DHT22;27177;22.262;114.192;2022-11-15T07:38:32;23.50;99.90
41435;DHT22;27177;22.262;114.192;2022-11-15T07:41:01;23.60;99.90
41435;DHT22;27177;22.262;114.192;2022-11-15T07:43:28;23.50;99.90
41435;DHT22;27177;22.262;114.192;2022-11-15T07:45:56;23.60;99.90
41435;DHT22;27177;22.262;114.192;2022-11-15T07:48:23;23.50;99.90
41435;DHT22;27177;22.262;114.192;2022-11-15T07:50:50;23.50;99.90
41435;DHT22;27177;22.262;114.192;2022-11-15T07:53:16;23.40;99.90
41435;DHT22;27177;22.262;114.192;2022-11-15T07:55:43;23.40;99.90
41435;DHT22;27177;22.262;114.192;2022-11-15T07:58:11;23.40;99.90
41435;DHT22;27177;22.262;114.192;2022-11-15T08:00:38;23.40;99.90
41435;DHT22;27177;22.262;114.192;2022-11-15T08:05:33;23.30;99.90
41435;DHT22;27177;22.262;114.192;2022-11-15T08:08:01;23.30;99.90
41435;DHT22;27177;22.262;114.192;2022-11-15T08:10:28;23.20;99.90
41435;DHT22;27177;22.262;114.192;2022-11-15T08:13:02;23.10;99.90
41435;DHT22;27177;22.262;114.192;2022-11-15T08:15:30;23.10;99.90
41435;DHT22;27177;22.262;114.192;2022-11-15T08:18:02;23.10;99.90
41435;DHT22;27177;22.262;114.192;2022-11-15T08:20:30;23.10;99.90
41435;DHT22;27177;22.262;114.192;2022-11-15T08:23:01;23.10;99.90
41435;DHT22;27177;22.262;114.192;2022-11-15T08:25:30;23.00;99.90
41435;DHT22;27177;22.262;114.192;2022-11-15T08:27:59;23.00;99.90
41435;DHT22;27177;22.262;114.192;2022-11-15T08:30:27;23.00;99.90
41435;DHT22;27177;22.262;114.192;2022-11-15T08:32:55;23.00;99.90
41435;DHT22;27177;22.262;114.192;2022-11-15T08:35:26;23.00;99.90
41435;DHT22;27177;22.262;114.192;2022-11-15T08:37:53;23.00;99.90
41435;DHT22;27177;22.262;114.192;2022-11-15T08:40:21;23.10;99.90
41435;DHT22;27177;22.262;114.192;2022-11-15T08:42:48;23.00;99.90
41435;DHT22;27177;22.262;114.192;2022-11-15T08:45:15;23.00;99.90
41435;DHT22;27177;22.262;114.192;2022-11-15T08:47:42;23.00;99.90
41435;DHT22;27177;22.262;114.192;2022-11-15T08:50:09;22.90;99.90
41435;DHT22;27177;22.262;114.192;2022-11-15T08:52:35;23.00;99.90
41435;DHT22;27177;22.262;114.192;2022-11-15T08:55:02;22.80;99.90
41435;DHT22;27177;22.262;114.192;2022-11-15T08:57:30;22.80;99.90
41435;DHT22;27177;22.262;114.192;2022-11-15T08:59:57;22.70;99.90
41435;DHT22;27177;22.262;114.192;2022-11-15T09:02:24;22.70;99.90
41435;DHT22;27177;22.262;114.192;2022-11-15T09:04:50;22.70;99.90
41435;DHT22;27177;22.262;114.192;2022-11-15T09:07:17;22.60;99.90
41435;DHT22;27177;22.262;114.192;2022-11-15T09:09:44;22.60;99.90
41435;DHT22;27177;22.262;114.192;2022-11-15T09:12:11;22.70;99.90
41435;DHT22;27177;22.262;114.192;2022-11-15T09:14:38;22.60;99.90
41435;DHT22;27177;22.262;114.192;2022-11-15T09:17:07;22.70;99.90
41435;DHT22;27177;22.262;114.192;2022-11-15T09:19:34;22.60;99.90
41435;DHT22;27177;22.262;114.192;2022-11-15T09:22:06;22.60;99.90
41435;DHT22;27177;22.262;114.192;2022-11-15T09:24:34;22.50;99.90
41435;DHT22;27177;22.262;114.192;2022-11-15T09:27:01;22.50;99.90
41435;DHT22;27177;22.262;114.192;2022-11-15T09:29:47;22.50;99.90
41435;DHT22;27177;22.262;114.192;2022-11-15T09:32:34;22.50;99.90
41435;DHT22;27177;22.262;114.192;2022-11-15T09:35:28;22.40;99.90
41435;DHT22;27177;22.262;114.192;2022-11-15T09:37:57;22.40;99.90
41435;DHT22;27177;22.262;114.192;2022-11-15T09:53:35;22.30;99.90
41435;DHT22;27177;22.262;114.192;2022-11-15T10:06:36;22.20;99.90
41435;DHT22;27177;22.262;114.192;2022-11-15T10:11:47;22.20;99.90
41435;DHT22;27177;22.262;114.192;2022-11-15T10:29:50;22.20;99.90
41435;DHT22;27177;22.262;114.192;2022-11-15T10:34:52;22.20;99.90
41435;DHT22;27177;22.262;114.192;2022-11-15T10:50:32;22.30;99.90
41435;DHT22;27177;22.262;114.192;2022-11-15T10:53:00;22.30;99.90
41435;DHT22;27177;22.262;114.192;2022-11-15T10:55:31;22.30;99.90
41435;DHT22;27177;22.262;114.192;2022-11-15T11:00:47;22.40;99.90
41435;DHT22;27177;22.262;114.192;2022-11-15T11:03:36;22.40;99.90
41435;DHT22;27177;22.262;114.192;2022-11-15T11:06:13;22.40;99.90
41435;DHT22;27177;22.262;114.192;2022-11-15T11:08:47;22.40;99.90
41435;DHT22;27177;22.262;114.192;2022-11-15T11:11:21;22.40;99.90
41435;DHT22;27177;22.262;114.192;2022-11-15T11:13:48;22.40;99.90
41435;DHT22;27177;22.262;114.192;2022-11-15T11:28:48;22.40;99.90
41435;DHT22;27177;22.262;114.192;2022-11-15T11:31:25;22.40;99.90
41435;DHT22;27177;22.262;114.192;2022-11-15T11:42:02;22.50;99.90
41435;DHT22;27177;22.262;114.192;2022-11-15T11:47:11;22.50;99.90
41435;DHT22;27177;22.262;114.192;2022-11-15T11:50:42;22.50;99.90
41435;DHT22;27177;22.262;114.192;2022-11-15T12:54:52;22.60;99.90
41435;DHT22;27177;22.262;114.192;2022-11-15T13:17:49;22.50;99.90
41435;DHT22;27177;22.262;114.192;2022-11-15T13:22:48;22.50;99.90
41435;DHT22;27177;22.262;114.192;2022-11-15T13:33:39;22.30;99.90
41435;DHT22;27177;22.262;114.192;2022-11-15T13:36:16;22.30;99.90
41435;DHT22;27177;22.262;114.192;2022-11-15T13:39:01;22.30;99.90
41435;DHT22;27177;22.262;114.192;2022-11-15T13:41:31;22.30;99.90
41435;DHT22;27177;22.262;114.192;2022-11-15T13:43:59;22.30;99.90
41435;DHT22;27177;22.262;114.192;2022-11-15T13:46:28;22.30;99.90
41435;DHT22;27177;22.262;114.192;2022-11-15T13:49:08;22.30;99.90
41435;DHT22;27177;22.262;114.192;2022-11-15T13:51:49;22.30;99.90
41435;DHT22;27177;22.262;114.192;2022-11-15T13:57:05;22.30;99.90
41435;DHT22;27177;22.262;114.192;2022-11-15T13:59:43;22.30;99.90
41435;DHT22;27177;22.262;114.192;2022-11-15T14:02:18;22.30;99.90
41435;DHT22;27177;22.262;114.192;2022-11-15T14:05:18;22.30;99.90
41435;DHT22;27177;22.262;114.192;2022-11-15T14:08:03;22.20;99.90
41435;DHT22;27177;22.262;114.192;2022-11-15T14:10:32;22.10;99.90
41435;DHT22;27177;22.262;114.192;2022-11-15T14:13:00;22.10;99.90
41435;DHT22;27177;22.262;114.192;2022-11-15T14:15:33;22.10;99.90
41435;DHT22;27177;22.262;114.192;2022-11-15T14:18:01;22.00;99.90
41435;DHT22;27177;22.262;114.192;2022-11-15T14:20:31;22.00;99.90
41435;DHT22;27177;22.262;114.192;2022-11-15T14:23:03;22.00;99.90
41435;DHT22;27177;22.262;114.192;2022-11-15T14:25:34;21.90;99.90
41435;DHT22;27177;22.262;114.192;2022-11-15T14:30:41;21.90;99.90
41435;DHT22;27177;22.262;114.192;2022-11-15T14:33:34;21.90;99.90
41435;DHT22;27177;22.262;114.192;2022-11-15T14:38:32;21.90;99.90
41435;DHT22;27177;22.262;114.192;2022-11-15T14:40:59;21.80;99.90
41435;DHT22;27177;22.262;114.192;2022-11-15T14:43:26;21.80;99.90
41435;DHT22;27177;22.262;114.192;2022-11-15T14:45:52;21.80;99.90
41435;DHT22;27177;22.262;114.192;2022-11-15T14:48:19;21.80;99.90
41435;DHT22;27177;22.262;114.192;2022-11-15T14:50:46;21.80;99.90
41435;DHT22;27177;22.262;114.192;2022-11-15T14:53:15;21.80;99.90
41435;DHT22;27177;22.262;114.192;2022-11-15T14:55:43;21.80;99.90
41435;DHT22;27177;22.262;114.192;2022-11-15T14:58:10;21.70;99.90
41435;DHT22;27177;22.262;114.192;2022-11-15T15:00:38;21.70;99.90
41435;DHT22;27177;22.262;114.192;2022-11-15T15:03:06;21.70;99.90
41435;DHT22;27177;22.262;114.192;2022-11-15T15:05:38;21.70;99.90
41435;DHT22;27177;22.262;114.192;2022-11-15T15:08:06;21.70;99.90
41435;DHT22;27177;22.262;114.192;2022-11-15T15:10:35;21.70;99.90
41435;DHT22;27177;22.262;114.192;2022-11-15T15:13:03;21.70;99.90
41435;DHT22;27177;22.262;114.192;2022-11-15T15:15:35;21.70;99.90
41435;DHT22;27177;22.262;114.192;2022-11-15T15:18:03;21.70;99.90
41435;DHT22;27177;22.262;114.192;2022-11-15T15:20:32;21.70;99.90
41435;DHT22;27177;22.262;114.192;2022-11-15T15:22:58;21.70;99.90
41435;DHT22;27177;22.262;114.192;2022-11-15T15:25:34;21.70;99.90
41435;DHT22;27177;22.262;114.192;2022-11-15T15:28:01;21.70;99.90
41435;DHT22;27177;22.262;114.192;2022-11-15T15:30:30;21.70;99.90
41435;DHT22;27177;22.262;114.192;2022-11-15T15:32:57;21.70;99.90
41435;DHT22;27177;22.262;114.192;2022-11-15T15:35:26;21.70;99.90
41435;DHT22;27177;22.262;114.192;2022-11-15T15:37:55;21.70;99.90
41435;DHT22;27177;22.262;114.192;2022-11-15T15:40:23;21.70;99.90
41435;DHT22;27177;22.262;114.192;2022-11-15T15:42:50;21.70;99.90
41435;DHT22;27177;22.262;114.192;2022-11-15T15:45:18;21.70;99.90
41435;DHT22;27177;22.262;114.192;2022-11-15T15:47:45;21.70;99.90
41435;DHT22;27177;22.262;114.192;2022-11-15T15:52:52;21.60;99.90
41435;DHT22;27177;22.262;114.192;2022-11-15T15:55:20;21.60;99.90
41435;DHT22;27177;22.262;114.192;2022-11-15T15:57:46;21.60;99.90
41435;DHT22;27177;22.262;114.192;2022-11-15T16:00:14;21.60;99.90
41435;DHT22;27177;22.262;114.192;2022-11-15T16:02:41;21.60;99.90
41435;DHT22;27177;22.262;114.192;2022-11-15T16:05:09;21.60;99.90
41435;DHT22;27177;22.262;114.192;2022-11-15T16:07:37;21.60;99.90
41435;DHT22;27177;22.262;114.192;2022-11-15T16:12:46;21.60;99.90
41435;DHT22;27177;22.262;114.192;2022-11-15T16:15:13;21.60;99.90
41435;DHT22;27177;22.262;114.192;2022-11-15T16:17:56;21.60;99.90
41435;DHT22;27177;22.262;114.192;2022-11-15T16:20:41;21.60;99.90
41435;DHT22;27177;22.262;114.192;2022-11-15T16:23:15;21.60;99.90
41435;DHT22;27177;22.262;114.192;2022-11-15T16:25:52;21.60;99.90
41435;DHT22;27177;22.262;114.192;2022-11-15T16:28:31;21.60;99.90
41435;DHT22;27177;22.262;114.192;2022-11-15T16:31:08;21.50;99.90
41435;DHT22;27177;22.262;114.192;2022-11-15T16:33:36;21.60;99.90
41435;DHT22;27177;22.262;114.192;2022-11-15T16:36:05;21.50;99.90
41435;DHT22;27177;22.262;114.192;2022-11-15T16:38:32;21.60;99.90
41435;DHT22;27177;22.262;114.192;2022-11-15T16:40:59;21.60;99.90
41435;DHT22;27177;22.262;114.192;2022-11-15T16:43:26;21.60;99.90
41435;DHT22;27177;22.262;114.192;2022-11-15T16:45:52;21.50;99.90
41435;DHT22;27177;22.262;114.192;2022-11-15T16:48:26;21.50;99.90
41435;DHT22;27177;22.262;114.192;2022-11-15T16:50:57;21.50;99.90
41435;DHT22;27177;22.262;114.192;2022-11-15T16:53:25;21.60;99.90
41435;DHT22;27177;22.262;114.192;2022-11-15T16:55:54;21.60;99.90
41435;DHT22;27177;22.262;114.192;2022-11-15T16:58:20;21.60;99.90
41435;DHT22;27177;22.262;114.192;2022-11-15T17:00:55;21.50;99.90
41435;DHT22;27177;22.262;114.192;2022-11-15T17:03:23;21.60;99.90
41435;DHT22;27177;22.262;114.192;2022-11-15T17:05:51;21.60;99.90
41435;DHT22;27177;22.262;114.192;2022-11-15T17:08:18;21.60;99.90
41435;DHT22;27177;22.262;114.192;2022-11-15T17:10:47;21.60;99.90
41435;DHT22;27177;22.262;114.192;2022-11-15T17:13:14;21.60;99.90
41435;DHT22;27177;22.262;114.192;2022-11-15T17:15:40;21.50;99.90
41435;DHT22;27177;22.262;114.192;2022-11-15T17:18:10;21.50;99.90
41435;DHT22;27177;22.262;114.192;2022-11-15T17:20:39;21.60;99.90
41435;DHT22;27177;22.262;114.192;2022-11-15T17:23:13;21.60;99.90
41435;DHT22;27177;22.262;114.192;2022-11-15T17:25:40;21.60;99.90
41435;DHT22;27177;22.262;114.192;2022-11-15T17:28:07;21.60;99.90
41435;DHT22;27177;22.262;114.192;2022-11-15T17:30:33;21.60;99.90
41435;DHT22;27177;22.262;114.192;2022-11-15T17:33:00;21.60;99.90
41435;DHT22;27177;22.262;114.192;2022-11-15T17:35:27;21.60;99.90
41435;DHT22;27177;22.262;114.192;2022-11-15T17:37:54;21.70;99.90
41435;DHT22;27177;22.262;114.192;2022-11-15T17:40:20;21.70;99.90
41435;DHT22;27177;22.262;114.192;2022-11-15T17:42:47;21.70;99.90
41435;DHT22;27177;22.262;114.192;2022-11-15T17:45:14;21.70;99.90
41435;DHT22;27177;22.262;114.192;2022-11-15T17:47:41;21.70;99.90
41435;DHT22;27177;22.262;114.192;2022-11-15T17:50:08;21.70;99.90
41435;DHT22;27177;22.262;114.192;2022-11-15T17:52:35;21.80;99.90
41435;DHT22;27177;22.262;114.192;2022-11-15T17:55:02;21.70;99.90
41435;DHT22;27177;22.262;114.192;2022-11-15T17:57:29;21.70;99.90
41435;DHT22;27177;22.262;114.192;2022-11-15T17:59:55;21.80;99.90
41435;DHT22;27177;22.262;114.192;2022-11-15T18:02:22;21.70;99.90
41435;DHT22;27177;22.262;114.192;2022-11-15T18:04:49;21.70;99.90
41435;DHT22;27177;22.262;114.192;2022-11-15T18:07:15;21.70;99.90
41435;DHT22;27177;22.262;114.192;2022-11-15T18:09:42;21.70;99.90
41435;DHT22;27177;22.262;114.192;2022-11-15T18:12:14;21.70;99.90
41435;DHT22;27177;22.262;114.192;2022-11-15T18:14:41;21.70;99.90
41435;DHT22;27177;22.262;114.192;2022-11-15T18:17:07;21.70;99.90
41435;DHT22;27177;22.262;114.192;2022-11-15T18:19:34;21.60;99.90
41435;DHT22;27177;22.262;114.192;2022-11-15T18:22:01;21.60;99.90
41435;DHT22;27177;22.262;114.192;2022-11-15T18:24:35;21.60;99.90
41435;DHT22;27177;22.262;114.192;2022-11-15T18:27:06;21.60;99.90
41435;DHT22;27177;22.262;114.192;2022-11-15T18:29:33;21.60;99.90
41435;DHT22;27177;22.262;114.192;2022-11-15T18:32:04;21.60;99.90
41435;DHT22;27177;22.262;114.192;2022-11-15T18:34:36;21.60;99.90
41435;DHT22;27177;22.262;114.192;2022-11-15T18:37:03;21.50;99.90
41435;DHT22;27177;22.262;114.192;2022-11-15T18:39:30;21.60;99.90
41435;DHT22;27177;22.262;114.192;2022-11-15T18:41:56;21.60;99.90
41435;DHT22;27177;22.262;114.192;2022-11-15T18:44:23;21.60;99.90
41435;DHT22;27177;22.262;114.192;2022-11-15T18:46:50;21.60;99.90
41435;DHT22;27177;22.262;114.192;2022-11-15T18:49:17;21.60;99.90
41435;DHT22;27177;22.262;114.192;2022-11-15T18:51:46;21.60;99.90
41435;DHT22;27177;22.262;114.192;2022-11-15T18:54:14;21.60;99.90
41435;DHT22;27177;22.262;114.192;2022-11-15T18:56:41;21.60;99.90
41435;DHT22;27177;22.262;114.192;2022-11-15T18:59:11;21.60;99.90
41435;DHT22;27177;22.262;114.192;2022-11-15T19:01:40;21.70;99.90
41435;DHT22;27177;22.262;114.192;2022-11-15T19:04:12;21.70;99.90
41435;DHT22;27177;22.262;114.192;2022-11-15T19:06:45;21.60;99.90
41435;DHT22;27177;22.262;114.192;2022-11-15T19:09:14;21.70;99.90
41435;DHT22;27177;22.262;114.192;2022-11-15T19:11:42;21.60;99.90
41435;DHT22;27177;22.262;114.192;2022-11-15T19:14:14;21.60;99.90
41435;DHT22;27177;22.262;114.192;2022-11-15T19:16:42;21.70;99.90
41435;DHT22;27177;22.262;114.192;2022-11-15T19:19:23;21.60;99.90
41435;DHT22;27177;22.262;114.192;2022-11-15T19:21:56;21.70;99.90
41435;DHT22;27177;22.262;114.192;2022-11-15T19:24:24;21.60;99.90
41435;DHT22;27177;22.262;114.192;2022-11-15T19:26:52;21.70;99.90
41435;DHT22;27177;22.262;114.192;2022-11-15T19:29:19;21.70;99.90